createdAt,value
2023-05-05T00:00:49.902Z,57.3339
2023-05-05T00:01:52.355Z,57.4205
2023-05-05T00:02:54.866Z,57.4236
2023-05-05T00:03:57.574Z,57.4795
2023-05-05T00:05:00.008Z,57.5649
2023-05-05T00:06:02.459Z,57.4625
2023-05-05T00:07:04.909Z,57.4235
2023-05-05T00:08:07.577Z,57.2886
2023-05-05T00:09:10.054Z,57.1286
2023-05-05T00:10:12.486Z,57.1333
2023-05-05T00:11:15.259Z,57.3131
2023-05-05T00:12:17.761Z,57.5075
2023-05-05T00:13:20.364Z,57.7330
2023-05-05T00:14:22.811Z,58.0242
2023-05-05T00:15:25.289Z,58.2601
2023-05-05T00:16:28.047Z,58.4389
2023-05-05T00:17:30.516Z,58.6185
2023-05-05T00:18:33.019Z,58.8615
2023-05-05T00:19:35.473Z,59.0287
2023-05-05T00:20:37.953Z,59.2389
2023-05-05T00:21:40.429Z,59.4853
2023-05-05T00:22:42.930Z,59.5268
2023-05-05T00:23:45.406Z,59.5044
2023-05-05T00:24:47.902Z,59.6785
2023-05-05T00:25:50.773Z,59.7913
2023-05-05T00:26:53.276Z,59.8487
2023-05-05T00:27:55.783Z,59.8209
2023-05-05T00:28:58.280Z,59.7634
2023-05-05T00:30:00.780Z,59.9315
2023-05-05T00:31:03.283Z,60.1598
2023-05-05T00:32:05.787Z,60.2481
2023-05-05T00:33:08.353Z,60.3406
2023-05-05T00:34:10.898Z,60.4172
2023-05-05T00:35:13.392Z,60.4661
2023-05-05T00:36:15.861Z,60.5102
2023-05-05T00:37:18.371Z,60.5689
2023-05-05T00:38:21.101Z,60.5535
2023-05-05T00:39:23.613Z,60.6081
2023-05-05T00:40:26.134Z,60.6649
2023-05-05T00:41:28.681Z,60.6795
2023-05-05T00:42:31.202Z,60.6755
2023-05-05T00:43:33.766Z,60.6319
2023-05-05T00:44:36.306Z,60.6086
2023-05-05T00:45:38.796Z,60.6280
2023-05-05T00:46:41.435Z,60.7334
2023-05-05T00:47:43.941Z,60.8528
2023-05-05T00:48:46.419Z,60.9402
2023-05-05T00:49:48.916Z,61.0071
2023-05-05T00:50:51.388Z,61.1510
2023-05-05T00:51:53.840Z,61.2805
2023-05-05T00:52:56.317Z,61.3164
2023-05-05T00:53:58.823Z,61.1841
2023-05-05T00:55:01.318Z,61.2358
2023-05-05T00:56:03.762Z,61.5158
2023-05-05T00:57:06.219Z,61.8452
2023-05-05T00:58:08.686Z,62.0472
2023-05-05T00:59:11.148Z,62.1874
2023-05-05T01:00:13.631Z,62.2498
2023-05-05T01:01:16.100Z,62.3122
2023-05-05T01:02:18.539Z,62.3962
2023-05-05T01:03:21.051Z,62.6295
2023-05-05T01:04:23.550Z,62.8471
2023-05-05T01:05:25.974Z,62.9182
2023-05-05T01:06:28.462Z,62.8651
2023-05-05T01:07:30.907Z,62.8285
2023-05-05T01:08:33.373Z,62.8640
2023-05-05T01:09:35.893Z,62.9578
2023-05-05T01:10:38.325Z,63.0442
2023-05-05T01:11:40.824Z,63.1048
2023-05-05T01:12:43.333Z,63.1403
2023-05-05T01:13:45.797Z,62.9675
2023-05-05T01:14:48.268Z,62.7594
2023-05-05T01:15:50.773Z,62.7079
2023-05-05T01:16:53.197Z,62.6507
2023-05-05T01:17:55.699Z,62.7615
2023-05-05T01:18:58.185Z,63.0070
2023-05-05T01:20:00.745Z,63.0543
2023-05-05T01:21:03.224Z,63.1716
2023-05-05T01:22:05.700Z,63.2015
2023-05-05T01:23:08.178Z,63.3758
2023-05-05T01:24:10.917Z,63.5696
2023-05-05T01:25:13.364Z,63.7773
2023-05-05T01:26:15.788Z,63.9118
2023-05-05T01:27:18.257Z,64.0030
2023-05-05T01:28:20.739Z,64.2076
2023-05-05T01:29:23.242Z,64.1778
2023-05-05T01:30:25.709Z,64.1871
2023-05-05T01:31:28.248Z,64.5175
2023-05-05T01:32:30.716Z,64.9422
2023-05-05T01:33:33.109Z,65.1862
2023-05-05T01:34:35.628Z,65.3958
2023-05-05T01:35:38.075Z,65.5720
2023-05-05T01:36:40.528Z,65.6520
2023-05-05T01:37:43.020Z,65.6870
2023-05-05T01:38:45.711Z,65.7836
2023-05-05T01:39:48.166Z,65.8427
2023-05-05T01:40:50.635Z,65.9016
2023-05-05T01:41:53.066Z,65.9139
2023-05-05T01:42:55.565Z,65.9263
2023-05-05T01:43:58.038Z,65.9132
2023-05-05T01:45:00.509Z,65.9735
2023-05-05T01:46:03.236Z,66.0235
2023-05-05T01:47:05.741Z,66.0396
2023-05-05T01:48:08.189Z,66.0258
2023-05-05T01:49:10.648Z,66.0205
2023-05-05T01:50:13.112Z,66.0003
2023-05-05T01:51:15.573Z,65.9250
2023-05-05T01:52:18.044Z,65.7933
2023-05-05T01:53:20.740Z,65.6299
2023-05-05T01:54:23.185Z,65.4477
2023-05-05T01:55:25.645Z,65.2651
2023-05-05T01:56:28.366Z,65.1156
2023-05-05T01:57:30.815Z,64.9540
2023-05-05T01:58:33.517Z,64.7207
2023-05-05T01:59:36.014Z,64.4269
2023-05-05T02:00:38.494Z,64.2554
2023-05-05T02:01:41.057Z,64.1367
2023-05-05T02:02:43.576Z,64.0849
2023-05-05T02:03:46.128Z,64.0340
2023-05-05T02:04:48.600Z,63.9679
2023-05-05T02:05:51.388Z,63.8601
2023-05-05T02:06:53.837Z,63.7908
2023-05-05T02:07:56.329Z,63.8272
2023-05-05T02:08:58.838Z,63.8578
2023-05-05T02:10:01.357Z,63.7951
2023-05-05T02:11:03.915Z,63.6335
2023-05-05T02:12:06.416Z,63.4008
2023-05-05T02:13:09.016Z,63.1860
2023-05-05T02:14:11.762Z,63.0086
2023-05-05T02:15:14.281Z,62.9392
2023-05-05T02:16:16.901Z,62.6991
2023-05-05T02:17:19.472Z,62.5590
2023-05-05T02:18:21.949Z,62.4500
2023-05-05T02:19:22.321Z,62.4442
2023-05-05T02:20:24.848Z,62.4656
2023-05-05T02:21:27.684Z,62.5054
2023-05-05T02:22:30.140Z,62.5051
2023-05-05T02:23:32.683Z,62.5434
2023-05-05T02:24:35.170Z,62.6689
2023-05-05T02:25:37.638Z,62.7220
2023-05-05T02:26:40.400Z,62.7378
2023-05-05T02:27:42.872Z,62.7203
2023-05-05T02:28:45.633Z,62.7693
2023-05-05T02:29:48.080Z,62.9288
2023-05-05T02:30:50.745Z,63.0830
2023-05-05T02:31:53.472Z,63.1203
2023-05-05T02:32:55.979Z,63.2459
2023-05-05T02:33:58.782Z,63.3579
2023-05-05T02:35:01.254Z,63.5388
2023-05-05T02:36:03.959Z,63.7310
2023-05-05T02:37:06.411Z,63.7956
2023-05-05T02:38:08.823Z,63.8078
2023-05-05T02:39:11.585Z,63.8718
2023-05-05T02:40:14.063Z,63.8716
2023-05-05T02:41:16.824Z,63.9676
2023-05-05T02:42:19.244Z,64.0000
2023-05-05T02:43:21.733Z,64.0283
2023-05-05T02:44:24.533Z,64.1844
2023-05-05T02:45:26.937Z,64.2957
2023-05-05T02:46:29.700Z,64.4975
2023-05-05T02:47:32.147Z,64.7281
2023-05-05T02:48:34.620Z,64.7109
2023-05-05T02:49:37.314Z,64.7297
2023-05-05T02:50:39.812Z,64.7432
2023-05-05T02:51:42.275Z,64.8489
2023-05-05T02:52:44.719Z,64.9351
2023-05-05T02:53:47.165Z,65.0445
2023-05-05T02:54:49.595Z,65.1942
2023-05-05T02:55:52.061Z,65.3835
2023-05-05T02:56:54.490Z,65.3576
2023-05-05T02:57:56.917Z,65.4060
2023-05-05T02:58:59.381Z,65.5521
2023-05-05T03:00:01.835Z,65.7882
2023-05-05T03:01:04.296Z,65.9704
2023-05-05T03:02:07.079Z,66.0355
2023-05-05T03:03:09.595Z,66.0272
2023-05-05T03:04:12.072Z,66.1423
2023-05-05T03:05:14.481Z,66.2423
2023-05-05T03:06:17.046Z,66.2701
2023-05-05T03:07:19.499Z,66.3117
2023-05-05T03:08:21.916Z,66.2968
2023-05-05T03:09:24.394Z,66.2101
2023-05-05T03:10:26.841Z,66.1121
2023-05-05T03:11:29.300Z,66.0380
2023-05-05T03:12:31.779Z,66.0508
2023-05-05T03:13:34.189Z,66.1230
2023-05-05T03:14:36.661Z,66.3257
2023-05-05T03:15:39.111Z,66.4950
2023-05-05T03:16:41.638Z,66.5410
2023-05-05T03:17:44.142Z,66.5144
2023-05-05T03:18:46.602Z,66.4834
2023-05-05T03:19:49.062Z,66.4857
2023-05-05T03:20:51.491Z,66.4580
2023-05-05T03:21:53.949Z,66.3298
2023-05-05T03:22:56.380Z,66.0845
2023-05-05T03:23:58.836Z,65.9227
2023-05-05T03:25:01.287Z,65.6339
2023-05-05T03:26:03.739Z,65.4002
2023-05-05T03:27:06.389Z,65.2543
2023-05-05T03:28:08.804Z,65.1625
2023-05-05T03:29:11.234Z,65.0977
2023-05-05T03:30:13.665Z,65.0489
2023-05-05T03:31:16.152Z,64.9761
2023-05-05T03:32:18.601Z,64.8729
2023-05-05T03:33:21.017Z,64.6980
2023-05-05T03:34:23.487Z,64.5130
2023-05-05T03:35:25.929Z,64.3842
2023-05-05T03:36:29.502Z,64.3135
2023-05-05T03:37:32.018Z,64.2719
2023-05-05T03:38:34.566Z,64.2245
2023-05-05T03:39:36.986Z,64.1931
2023-05-05T03:40:44.196Z,64.2254
2023-05-05T03:41:40.710Z,64.2607
2023-05-05T03:42:43.152Z,64.2878
2023-05-05T03:43:45.816Z,64.2638
2023-05-05T03:44:48.294Z,64.2244
2023-05-05T03:45:50.781Z,64.1600
2023-05-05T03:46:51.116Z,64.0209
2023-05-05T03:47:53.609Z,63.8902
2023-05-05T03:48:56.399Z,63.7988
2023-05-05T03:49:58.816Z,63.7267
2023-05-05T03:51:01.273Z,63.6802
2023-05-05T03:52:04.078Z,63.6629
2023-05-05T03:53:06.543Z,63.6483
2023-05-05T03:54:09.314Z,63.6536
2023-05-05T03:55:11.750Z,63.6318
2023-05-05T03:56:14.224Z,63.6004
2023-05-05T03:57:17.015Z,63.5850
2023-05-05T03:58:19.420Z,63.5987
2023-05-05T03:59:21.862Z,63.6610
2023-05-05T04:00:24.330Z,63.7070
2023-05-05T04:01:27.049Z,63.7818
2023-05-05T04:02:29.591Z,63.8575
2023-05-05T04:03:32.164Z,63.8335
2023-05-05T04:04:34.791Z,63.7674
2023-05-05T04:05:37.323Z,63.6989
2023-05-05T04:06:39.816Z,63.6448
2023-05-05T04:07:42.279Z,63.6302
2023-05-05T04:08:44.757Z,63.6518
2023-05-05T04:09:47.222Z,63.6408
2023-05-05T04:10:49.736Z,63.6448
2023-05-05T04:11:52.224Z,63.6369
2023-05-05T04:12:54.683Z,63.6391
2023-05-05T04:13:57.115Z,63.8749
2023-05-05T04:14:59.635Z,64.0512
2023-05-05T04:16:02.120Z,64.3527
2023-05-05T04:17:04.607Z,64.5218
2023-05-05T04:18:07.104Z,64.6962
2023-05-05T04:19:09.570Z,64.8446
2023-05-05T04:20:12.047Z,65.0301
2023-05-05T04:21:14.492Z,65.2138
2023-05-05T04:22:16.937Z,65.3611
2023-05-05T04:23:19.380Z,65.4586
2023-05-05T04:24:21.831Z,65.5367
2023-05-05T04:25:24.285Z,65.6022
2023-05-05T04:26:26.711Z,65.6960
2023-05-05T04:27:29.228Z,65.7755
2023-05-05T04:28:31.661Z,65.8443
2023-05-05T04:29:34.152Z,65.9133
2023-05-05T04:30:36.636Z,66.0476
2023-05-05T04:31:39.114Z,66.0832
2023-05-05T04:32:41.539Z,65.9350
2023-05-05T04:33:44.105Z,65.7782
2023-05-05T04:34:46.609Z,65.6577
2023-05-05T04:35:49.028Z,65.5925
2023-05-05T04:36:51.478Z,65.5378
2023-05-05T04:37:53.904Z,65.4674
2023-05-05T04:38:56.433Z,65.3402
2023-05-05T04:39:58.900Z,65.2151
2023-05-05T04:41:01.358Z,65.0498
2023-05-05T04:42:03.867Z,64.9047
2023-05-05T04:43:06.276Z,64.7536
2023-05-05T04:44:08.745Z,64.6027
2023-05-05T04:45:11.169Z,64.4655
2023-05-05T04:46:13.691Z,64.3242
2023-05-05T04:47:16.429Z,64.1979
2023-05-05T04:48:18.905Z,64.0955
2023-05-05T04:49:21.411Z,64.0250
2023-05-05T04:50:23.835Z,64.0143
2023-05-05T04:51:26.296Z,63.9793
2023-05-05T04:52:28.781Z,64.0010
2023-05-05T04:53:31.234Z,64.2117
2023-05-05T04:54:33.729Z,64.3060
2023-05-05T04:55:36.167Z,64.3629
2023-05-05T04:56:38.641Z,64.4638
2023-05-05T04:57:41.114Z,64.5273
2023-05-05T04:58:43.575Z,64.5591
2023-05-05T04:59:46.035Z,64.5196
2023-05-05T05:00:48.500Z,64.4312
2023-05-05T05:01:51.185Z,64.3485
2023-05-05T05:02:53.715Z,64.2875
2023-05-05T05:03:56.224Z,64.2239
2023-05-05T05:04:58.670Z,64.0964
2023-05-05T05:06:01.108Z,63.9315
2023-05-05T05:07:03.619Z,63.7738
2023-05-05T05:08:06.026Z,63.6137
2023-05-05T05:09:08.498Z,63.4826
2023-05-05T05:10:11.108Z,63.4290
2023-05-05T05:11:13.657Z,63.6312
2023-05-05T05:12:16.145Z,63.7437
2023-05-05T05:13:18.747Z,63.8518
2023-05-05T05:14:21.252Z,63.9340
2023-05-05T05:15:23.719Z,63.9516
2023-05-05T05:16:26.347Z,63.9934
2023-05-05T05:17:28.839Z,64.1088
2023-05-05T05:18:31.286Z,64.3272
2023-05-05T05:19:33.752Z,64.5993
2023-05-05T05:20:36.218Z,64.8128
2023-05-05T05:21:38.665Z,64.9356
2023-05-05T05:22:41.150Z,65.0329
2023-05-05T05:23:43.606Z,65.1386
2023-05-05T05:24:46.188Z,65.1560
2023-05-05T05:25:48.674Z,65.2771
2023-05-05T05:26:50.891Z,65.2414
2023-05-05T05:28:06.131Z,65.2076
2023-05-05T05:28:54.398Z,65.1878
2023-05-05T05:29:57.083Z,65.2037
2023-05-05T05:30:59.550Z,65.2566
2023-05-05T05:32:02.106Z,65.2593
2023-05-05T05:33:04.539Z,65.2980
2023-05-05T05:34:04.895Z,65.4175
2023-05-05T05:35:07.370Z,65.4441
2023-05-05T05:36:09.817Z,65.5115
2023-05-05T05:37:12.512Z,65.6127
2023-05-05T05:38:14.991Z,65.6629
2023-05-05T05:39:17.670Z,65.6619
2023-05-05T05:40:20.098Z,65.7249
2023-05-05T05:41:22.584Z,65.7997
2023-05-05T05:42:25.251Z,65.7626
2023-05-05T05:43:27.726Z,65.7469
2023-05-05T05:44:30.430Z,65.6994
2023-05-05T05:45:32.910Z,65.6370
2023-05-05T05:46:35.452Z,65.6271
2023-05-05T05:47:38.232Z,65.6004
2023-05-05T05:48:40.694Z,65.5391
2023-05-05T05:49:43.383Z,65.4883
2023-05-05T05:50:45.990Z,65.4158
2023-05-05T05:51:48.420Z,65.3450
2023-05-05T05:52:50.838Z,65.2866
2023-05-05T05:53:53.361Z,65.3039
2023-05-05T05:54:55.780Z,65.2372
2023-05-05T05:55:58.263Z,65.1668
2023-05-05T05:57:00.826Z,65.1094
2023-05-05T05:58:03.257Z,65.0370
2023-05-05T05:59:05.712Z,64.9417
2023-05-05T06:00:08.669Z,64.8453
2023-05-05T06:01:11.379Z,64.7351
2023-05-05T06:02:14.176Z,64.5989
2023-05-05T06:03:16.868Z,64.4749
2023-05-05T06:04:19.678Z,64.3513
2023-05-05T06:05:22.125Z,64.2349
2023-05-05T06:06:24.583Z,64.1289
2023-05-05T06:07:30.688Z,64.0198
2023-05-05T06:08:33.150Z,63.8502
2023-05-05T06:09:35.922Z,63.6272
2023-05-05T06:10:38.357Z,63.3495
2023-05-05T06:11:40.798Z,63.1552
2023-05-05T06:12:43.439Z,63.0227
2023-05-05T06:13:45.884Z,62.9285
2023-05-05T06:14:48.590Z,62.8494
2023-05-05T06:15:51.096Z,62.7826
2023-05-05T06:16:53.619Z,62.6885
2023-05-05T06:17:56.061Z,62.6233
2023-05-05T06:18:58.536Z,62.5223
2023-05-05T06:20:01.348Z,62.3950
2023-05-05T06:21:03.802Z,62.2342
2023-05-05T06:22:06.281Z,62.0664
2023-05-05T06:23:08.742Z,61.8876
2023-05-05T06:24:11.243Z,61.6845
2023-05-05T06:25:13.927Z,61.4942
2023-05-05T06:26:16.418Z,61.2949
2023-05-05T06:27:18.884Z,61.0263
2023-05-05T06:28:21.353Z,60.7954
2023-05-05T06:29:23.958Z,60.5807
2023-05-05T06:30:26.449Z,60.3693
2023-05-05T06:31:28.977Z,60.1690
2023-05-05T06:32:31.435Z,60.0033
2023-05-05T06:33:33.881Z,59.7486
2023-05-05T06:34:36.617Z,59.3729
2023-05-05T06:35:39.044Z,59.0311
2023-05-05T06:36:41.604Z,58.5508
2023-05-05T06:37:44.392Z,57.9881
2023-05-05T06:38:46.828Z,57.4809
2023-05-05T06:39:49.314Z,57.1165
2023-05-05T06:40:51.796Z,56.7285
2023-05-05T06:41:54.271Z,56.2909
2023-05-05T06:42:56.669Z,55.7966
2023-05-05T06:43:59.103Z,55.2653
2023-05-05T06:45:01.902Z,54.0953
2023-05-05T06:46:04.327Z,53.2582
2023-05-05T06:47:06.837Z,53.1097
2023-05-05T06:48:09.335Z,52.8816
2023-05-05T06:49:11.766Z,52.6334
2023-05-05T06:50:14.277Z,52.6942
2023-05-05T06:51:16.756Z,52.4318
2023-05-05T06:52:19.242Z,52.2123
2023-05-05T06:53:21.701Z,52.1206
2023-05-05T06:54:24.198Z,51.5257
2023-05-05T06:55:26.875Z,51.1721
2023-05-05T06:56:29.364Z,50.9044
2023-05-05T06:57:31.880Z,50.2034
2023-05-05T06:58:34.358Z,49.5602
2023-05-05T06:59:36.837Z,48.9864
2023-05-05T07:00:39.412Z,48.2644
2023-05-05T07:01:41.895Z,48.0913
2023-05-05T07:02:42.702Z,47.7204
2023-05-05T07:03:45.284Z,47.5219
2023-05-05T07:04:48.026Z,46.9664
2023-05-05T07:05:50.523Z,46.2568
2023-05-05T07:06:53.005Z,45.6730
2023-05-05T07:07:55.503Z,45.5751
2023-05-05T07:08:57.976Z,45.7411
2023-05-05T07:10:00.483Z,45.7697
2023-05-05T07:11:02.960Z,44.9546
2023-05-05T07:12:05.412Z,44.8672
2023-05-05T07:13:07.977Z,45.0435
2023-05-05T07:14:10.535Z,44.8695
2023-05-05T07:15:26.933Z,44.7309
2023-05-05T07:16:14.190Z,44.6071
2023-05-05T07:17:16.693Z,44.0758
2023-05-05T07:18:19.200Z,43.5888
2023-05-05T07:19:21.717Z,43.1375
2023-05-05T07:20:24.445Z,42.7901
2023-05-05T07:21:27.081Z,42.8547
2023-05-05T07:22:29.623Z,41.2432
2023-05-05T07:23:32.163Z,40.9750
2023-05-05T07:24:34.604Z,41.4959
2023-05-05T07:25:37.119Z,41.6403
2023-05-05T07:26:39.612Z,41.0833
2023-05-05T07:28:42.438Z,40.4293
2023-05-05T07:28:42.438Z,39.8965
2023-05-05T07:29:44.957Z,40.2038
2023-05-05T07:30:47.482Z,40.0966
2023-05-05T07:31:50.040Z,40.1558
2023-05-05T07:32:52.541Z,39.5541
2023-05-05T07:33:55.001Z,39.3726
2023-05-05T07:34:57.507Z,39.2696
2023-05-05T07:36:00.457Z,39.2703
2023-05-05T07:37:02.957Z,39.2865
2023-05-05T07:38:05.652Z,39.6281
2023-05-05T07:39:08.448Z,39.6210
2023-05-05T07:40:11.145Z,39.5326
2023-05-05T07:41:13.787Z,39.5037
2023-05-05T07:42:16.282Z,39.5589
2023-05-05T07:43:18.810Z,39.6703
2023-05-05T07:44:21.344Z,39.0831
2023-05-05T07:45:24.112Z,38.4148
2023-05-05T07:46:26.678Z,38.5095
2023-05-05T07:47:29.200Z,38.2709
2023-05-05T07:48:31.666Z,38.4107
2023-05-05T07:49:34.411Z,38.4524
2023-05-05T07:51:40.541Z,38.6246
2023-05-05T07:51:40.541Z,38.4644
2023-05-05T07:52:48.416Z,38.5568
2023-05-05T07:53:44.152Z,38.5527
2023-05-05T07:54:46.685Z,38.5292
2023-05-05T07:55:49.405Z,37.6598
2023-05-05T07:56:51.975Z,37.6776
2023-05-05T07:57:54.896Z,37.8732
2023-05-05T07:58:57.409Z,38.2685
2023-05-05T08:00:07.557Z,38.3906
2023-05-05T08:01:10.208Z,38.5356
2023-05-05T08:03:13.023Z,38.5186
2023-05-05T08:03:13.023Z,38.5429
2023-05-05T08:04:15.595Z,38.4826
2023-05-05T08:05:18.151Z,38.2284
2023-05-05T08:06:20.655Z,37.6812
2023-05-05T08:07:23.527Z,37.1184
2023-05-05T08:08:26.081Z,37.2839
2023-05-05T08:09:28.557Z,37.3209
2023-05-05T08:10:31.323Z,37.3787
2023-05-05T08:11:33.864Z,37.3307
2023-05-05T08:12:36.327Z,37.1303
2023-05-05T08:13:38.836Z,36.8441
2023-05-05T08:14:41.350Z,36.7889
2023-05-05T08:15:44.062Z,36.7096
2023-05-05T08:16:46.558Z,36.3142
2023-05-05T08:17:49.492Z,36.4782
2023-05-05T08:18:52.195Z,36.4976
2023-05-05T08:19:54.678Z,36.3163
2023-05-05T08:20:57.160Z,36.2976
2023-05-05T08:22:01.205Z,36.3149
2023-05-05T08:23:00.322Z,36.2917
2023-05-05T08:24:02.782Z,36.1115
2023-05-05T08:25:05.415Z,35.6988
2023-05-05T08:27:08.187Z,35.3205
2023-05-05T08:27:08.187Z,34.5362
2023-05-05T08:28:10.681Z,34.4556
2023-05-05T08:30:14.119Z,34.3748
2023-05-05T08:30:14.119Z,34.1425
2023-05-05T08:31:16.635Z,34.1112
2023-05-05T08:32:19.128Z,34.0073
2023-05-05T08:33:21.624Z,33.8714
2023-05-05T08:34:24.113Z,33.6402
2023-05-05T08:35:26.611Z,33.5065
2023-05-05T08:36:29.103Z,33.3046
2023-05-05T08:37:31.672Z,32.7944
2023-05-05T08:38:34.146Z,32.5083
2023-05-05T08:39:36.637Z,32.4600
2023-05-05T08:40:39.147Z,32.6368
2023-05-05T08:41:41.647Z,32.7481
2023-05-05T08:42:44.155Z,32.8170
2023-05-05T08:43:46.652Z,32.7379
2023-05-05T08:44:49.641Z,32.4260
2023-05-05T08:45:52.155Z,32.1522
2023-05-05T08:46:54.694Z,32.0458
2023-05-05T08:47:57.168Z,32.0582
2023-05-05T08:48:59.672Z,31.9977
2023-05-05T08:50:02.283Z,31.6917
2023-05-05T08:51:05.670Z,31.4581
2023-05-05T08:52:08.256Z,31.2328
2023-05-05T08:53:10.742Z,31.1031
2023-05-05T08:54:13.245Z,31.1634
2023-05-05T08:55:15.826Z,31.3228
2023-05-05T08:57:18.689Z,31.4383
2023-05-05T08:57:18.689Z,31.4040
2023-05-05T08:58:21.188Z,31.4029
2023-05-05T08:59:23.672Z,31.3543
2023-05-05T09:00:26.164Z,31.4684
2023-05-05T09:02:29.511Z,31.3076
2023-05-05T09:02:29.511Z,31.3106
2023-05-05T09:03:32.040Z,31.2867
2023-05-05T09:04:34.614Z,31.2905
2023-05-05T09:05:37.356Z,31.2402
2023-05-05T09:06:39.805Z,31.0228
2023-05-05T09:07:42.312Z,30.8050
2023-05-05T09:08:44.596Z,30.6684
2023-05-05T09:09:47.072Z,30.8393
2023-05-05T09:10:52.929Z,30.8610
2023-05-05T09:11:55.487Z,30.6077
2023-05-05T09:12:57.989Z,30.4832
2023-05-05T09:14:00.494Z,30.2848
2023-05-05T09:15:02.996Z,30.2071
2023-05-05T09:16:05.525Z,30.1538
2023-05-05T09:17:08.002Z,30.0036
2023-05-05T09:18:10.572Z,29.7440
2023-05-05T09:19:13.019Z,29.3721
2023-05-05T09:20:15.519Z,29.2083
2023-05-05T09:21:18.003Z,29.3211
2023-05-05T09:22:20.492Z,29.3111
2023-05-05T09:23:22.991Z,29.1434
2023-05-05T09:24:25.485Z,29.1288
2023-05-05T09:25:27.978Z,29.0190
2023-05-05T09:26:30.486Z,29.1852
2023-05-05T09:27:32.986Z,29.1398
2023-05-05T09:28:35.490Z,29.0714
2023-05-05T09:29:38.002Z,29.0279
2023-05-05T09:30:40.269Z,28.9820
2023-05-05T09:31:42.769Z,28.6543
2023-05-05T09:32:43.849Z,28.5104
2023-05-05T09:34:47.003Z,28.5984
2023-05-05T09:34:47.003Z,28.5637
2023-05-05T09:35:49.239Z,28.4317
2023-05-05T09:36:51.743Z,28.1572
2023-05-05T09:37:54.235Z,27.9645
2023-05-05T09:38:58.780Z,28.0069
2023-05-05T09:39:57.487Z,27.9428
2023-05-05T09:40:59.970Z,28.1826
2023-05-05T09:42:02.437Z,28.2293
2023-05-05T09:43:04.962Z,27.8356
2023-05-05T09:44:07.461Z,27.7816
2023-05-05T09:45:10.109Z,28.0749
2023-05-05T09:46:12.662Z,28.1742
2023-05-05T09:47:28.539Z,28.1870
2023-05-05T09:48:16.498Z,28.1669
2023-05-05T09:49:18.998Z,27.9965
2023-05-05T09:50:21.492Z,27.6939
2023-05-05T09:51:23.950Z,27.6756
2023-05-05T09:52:26.502Z,27.7968
2023-05-05T09:53:28.980Z,27.9666
2023-05-05T09:54:31.487Z,28.0555
2023-05-05T09:55:34.324Z,28.0546
2023-05-05T09:56:36.834Z,28.1324
2023-05-05T09:57:39.372Z,28.2376
2023-05-05T09:58:41.967Z,28.3026
2023-05-05T09:59:44.477Z,28.0086
2023-05-05T10:00:46.989Z,28.1298
2023-05-05T10:01:49.510Z,28.1026
2023-05-05T10:02:52.034Z,27.9240
2023-05-05T10:03:54.516Z,27.7730
2023-05-05T10:04:57.144Z,27.7817
2023-05-05T10:05:59.674Z,27.7359
2023-05-05T10:07:02.179Z,27.5067
2023-05-05T10:08:04.679Z,27.5361
2023-05-05T10:09:07.177Z,27.3432
2023-05-05T10:10:09.862Z,27.0836
2023-05-05T10:11:12.640Z,27.3198
2023-05-05T10:12:15.357Z,27.3612
2023-05-05T10:13:17.944Z,27.4230
2023-05-05T10:14:20.551Z,27.3936
2023-05-05T10:15:23.047Z,27.4461
2023-05-05T10:16:26.796Z,27.4490
2023-05-05T10:17:26.287Z,27.2465
2023-05-05T10:18:28.782Z,27.1985
2023-05-05T10:19:31.265Z,27.2374
2023-05-05T10:20:33.795Z,27.0728
2023-05-05T10:21:36.283Z,27.2176
2023-05-05T10:22:38.933Z,27.2311
2023-05-05T10:23:41.418Z,27.3897
2023-05-05T10:24:43.915Z,27.3692
2023-05-05T10:25:46.434Z,27.4559
2023-05-05T10:26:48.921Z,27.3876
2023-05-05T10:27:51.694Z,27.4084
2023-05-05T10:28:54.176Z,27.4060
2023-05-05T10:29:56.699Z,26.6904
2023-05-05T10:30:59.202Z,26.1444
2023-05-05T10:32:08.739Z,26.5366
2023-05-05T10:33:27.249Z,26.2165
2023-05-05T10:34:08.464Z,26.2003
2023-05-05T10:35:10.979Z,26.3136
2023-05-05T10:36:13.533Z,26.5776
2023-05-05T10:37:15.996Z,26.7114
2023-05-05T10:38:18.531Z,26.8376
2023-05-05T10:39:21.010Z,26.9713
2023-05-05T10:40:23.555Z,26.9564
2023-05-05T10:41:26.192Z,26.8870
2023-05-05T10:42:28.975Z,26.9382
2023-05-05T10:43:31.497Z,27.0640
2023-05-05T10:44:33.985Z,27.1466
2023-05-05T10:45:36.570Z,27.1312
2023-05-05T10:46:39.175Z,27.1089
2023-05-05T10:47:41.700Z,27.0323
2023-05-05T10:48:44.273Z,26.9150
2023-05-05T10:49:46.782Z,26.7680
2023-05-05T10:50:49.288Z,26.6569
2023-05-05T10:52:52.011Z,26.5382
2023-05-05T10:52:52.011Z,26.4353
2023-05-05T10:54:02.225Z,26.4244
2023-05-05T10:55:04.705Z,26.2291
2023-05-05T10:56:07.187Z,25.9798
2023-05-05T10:57:09.714Z,25.9146
2023-05-05T10:58:12.239Z,25.8637
2023-05-05T10:59:15.569Z,25.9285
2023-05-05T11:00:18.104Z,25.7371
2023-05-05T11:01:20.688Z,25.6546
2023-05-05T11:02:23.343Z,25.5436
2023-05-05T11:03:23.397Z,25.3611
2023-05-05T11:04:25.987Z,25.2459
2023-05-05T11:05:28.457Z,25.3583
2023-05-05T11:06:31.172Z,25.4031
2023-05-05T11:07:33.671Z,25.0812
2023-05-05T11:08:36.149Z,25.0869
2023-05-05T11:09:38.667Z,24.8827
2023-05-05T11:10:41.135Z,24.8181
2023-05-05T11:11:43.791Z,25.0330
2023-05-05T11:12:46.350Z,25.0274
2023-05-05T11:13:49.049Z,25.1930
2023-05-05T11:14:51.628Z,25.2648
2023-05-05T11:15:54.235Z,24.8500
2023-05-05T11:16:56.949Z,24.8983
2023-05-05T11:17:59.597Z,24.9416
2023-05-05T11:19:02.111Z,25.0806
2023-05-05T11:20:04.670Z,25.1164
2023-05-05T11:21:07.168Z,25.0069
2023-05-05T11:22:09.672Z,24.9142
2023-05-05T11:23:14.003Z,24.8394
2023-05-05T11:24:14.962Z,24.5172
2023-05-05T11:25:18.255Z,24.3916
2023-05-05T11:26:26.008Z,24.3848
2023-05-05T11:27:21.180Z,24.1247
2023-05-05T11:28:23.729Z,24.0958
2023-05-05T11:29:26.222Z,24.0192
2023-05-05T11:30:29.409Z,23.6694
2023-05-05T11:31:32.029Z,23.0246
2023-05-05T11:32:34.604Z,23.2428
2023-05-05T11:33:37.099Z,23.3896
2023-05-05T11:34:39.599Z,23.1989
2023-05-05T11:35:42.082Z,23.1504
2023-05-05T11:36:44.589Z,23.0637
2023-05-05T11:37:47.093Z,22.8401
2023-05-05T11:38:49.585Z,22.8247
2023-05-05T11:39:52.075Z,22.7511
2023-05-05T11:40:54.783Z,22.7805
2023-05-05T11:41:57.241Z,22.5583
2023-05-05T11:42:59.733Z,22.2418
2023-05-05T11:44:02.240Z,22.4186
2023-05-05T11:45:04.724Z,22.5394
2023-05-05T11:46:07.262Z,22.4498
2023-05-05T11:47:09.726Z,22.2742
2023-05-05T11:48:12.532Z,21.9959
2023-05-05T11:49:14.998Z,21.8398
2023-05-05T11:50:17.738Z,21.8022
2023-05-05T11:51:20.257Z,21.9768
2023-05-05T11:52:22.750Z,22.0493
2023-05-05T11:53:25.295Z,22.0207
2023-05-05T11:54:27.829Z,21.9142
2023-05-05T11:55:30.287Z,21.8059
2023-05-05T11:56:32.798Z,21.8707
2023-05-05T11:57:35.286Z,22.0468
2023-05-05T11:58:37.791Z,22.1353
2023-05-05T11:59:40.290Z,21.7778
2023-05-05T12:00:42.799Z,21.9635
2023-05-05T12:01:45.308Z,22.2089
2023-05-05T12:02:47.862Z,22.3915
2023-05-05T12:03:50.746Z,22.6281
2023-05-05T12:04:53.380Z,22.9074
2023-05-05T12:05:56.032Z,23.1338
2023-05-05T12:06:58.461Z,23.2279
2023-05-05T12:08:00.936Z,23.1564
2023-05-05T12:09:03.409Z,23.0678
2023-05-05T12:10:05.966Z,23.0358
2023-05-05T12:11:08.458Z,23.0432
2023-05-05T12:12:10.946Z,22.8879
2023-05-05T12:13:13.468Z,22.9572
2023-05-05T12:14:16.103Z,22.6458
2023-05-05T12:15:18.560Z,22.4280
2023-05-05T12:16:21.147Z,22.4677
2023-05-05T12:17:23.625Z,22.3200
2023-05-05T12:18:26.085Z,22.2191
2023-05-05T12:19:28.579Z,21.9561
2023-05-05T12:20:31.076Z,22.0025
2023-05-05T12:21:33.566Z,22.1555
2023-05-05T12:22:36.118Z,22.2826
2023-05-05T12:23:38.627Z,22.1528
2023-05-05T12:24:41.104Z,22.2251
2023-05-05T12:25:43.559Z,22.3215
2023-05-05T12:26:46.066Z,22.2969
2023-05-05T12:27:48.534Z,22.3804
2023-05-05T12:28:51.057Z,22.2110
2023-05-05T12:29:53.541Z,22.2123
2023-05-05T12:30:56.053Z,21.8295
2023-05-05T12:31:58.600Z,21.7168
2023-05-05T12:33:01.165Z,21.6819
2023-05-05T12:34:03.650Z,21.5288
2023-05-05T12:35:06.155Z,21.3838
2023-05-05T12:36:08.621Z,21.4716